EmailTwitter


Observations de surface / Québec / CYMX

Régions: Québec | Canada | États-Unis | Europe | France | UK | Ailleurs
Station
Affichage
Infos & localisation pour CYMX | Aide pour décoder les METARs

Observations prises le 2018-09-24 à 16H00 UTC à MONTREAL MIRABEL, QB (CYMX)

Etat du ciel: quelques nuages.

Température: 10.0 Celsius

Point de rosée: 0.0 Celsius

Humidité relative: 50%

Facteur vent: 8.

Facteur vent (rafales): 7.

Vents: Est à 17 km/h ou 9 noeuds.

Rafale du vent: 28 km/h ou 15 noeuds.

Pression au niveau moyen de la mer: 103.66 kilopascals.

Calage altimétrique: 103.62 kilopascals ou 30.60 pouces de mercure.

Visibilité horizontale: 45.00 milles terrestres ou 72.00 kilomètres.

Observation METAR:

CYMX 241600Z 08009G15KT 030V100 45SM FEW280 10/00 A3060 RMK CI1 SLP366=